sensor_id;sensor_type;location;lat;lon;timestamp;temperature;humidity
65462;DHT22;53236;43.666;18.444;2023-04-05T00:01:36;-0.80;99.90
65462;DHT22;53236;43.666;18.444;2023-04-05T00:04:02;-0.90;99.90
65462;DHT22;53236;43.666;18.444;2023-04-05T00:06:29;-0.80;99.90
65462;DHT22;53236;43.666;18.444;2023-04-05T00:09:00;-0.80;99.90
65462;DHT22;53236;43.666;18.444;2023-04-05T00:11:30;-0.80;99.90
65462;DHT22;53236;43.666;18.444;2023-04-05T00:13:58;-0.80;99.90
65462;DHT22;53236;43.666;18.444;2023-04-05T00:16:25;-0.80;99.90
65462;DHT22;53236;43.666;18.444;2023-04-05T00:18:51;-0.80;99.90
65462;DHT22;53236;43.666;18.444;2023-04-05T00:21:18;-0.80;99.90
65462;DHT22;53236;43.666;18.444;2023-04-05T00:23:50;-0.80;99.90
65462;DHT22;53236;43.666;18.444;2023-04-05T00:26:17;-0.80;99.90
65462;DHT22;53236;43.666;18.444;2023-04-05T00:28:43;-0.80;99.90
65462;DHT22;53236;43.666;18.444;2023-04-05T00:31:09;-0.80;99.90
65462;DHT22;53236;43.666;18.444;2023-04-05T00:33:35;-0.80;99.90
65462;DHT22;53236;43.666;18.444;2023-04-05T00:36:14;-0.80;99.90
65462;DHT22;53236;43.666;18.444;2023-04-05T00:38:42;-0.80;99.90
65462;DHT22;53236;43.666;18.444;2023-04-05T00:41:09;-0.90;99.90
65462;DHT22;53236;43.666;18.444;2023-04-05T00:43:34;-0.80;99.90
65462;DHT22;53236;43.666;18.444;2023-04-05T00:46:04;-0.80;99.90
65462;DHT22;53236;43.666;18.444;2023-04-05T00:48:31;-0.90;99.90
65462;DHT22;53236;43.666;18.444;2023-04-05T00:50:57;-0.80;99.90
65462;DHT22;53236;43.666;18.444;2023-04-05T00:53:24;-0.80;99.90
65462;DHT22;53236;43.666;18.444;2023-04-05T00:55:51;-0.80;99.90
65462;DHT22;53236;43.666;18.444;2023-04-05T00:58:18;-0.90;99.90
65462;DHT22;53236;43.666;18.444;2023-04-05T01:01:06;-0.80;99.90
65462;DHT22;53236;43.666;18.444;2023-04-05T01:03:39;-0.90;99.90
65462;DHT22;53236;43.666;18.444;2023-04-05T01:06:39;-0.90;99.90
65462;DHT22;53236;43.666;18.444;2023-04-05T01:12:08;-0.90;99.90
65462;DHT22;53236;43.666;18.444;2023-04-05T01:14:48;-0.90;99.90
65462;DHT22;53236;43.666;18.444;2023-04-05T01:17:18;-0.90;99.90
65462;DHT22;53236;43.666;18.444;2023-04-05T01:19:52;-0.90;99.90
65462;DHT22;53236;43.666;18.444;2023-04-05T01:22:35;-0.90;99.90
65462;DHT22;53236;43.666;18.444;2023-04-05T01:28:09;-0.90;99.90
65462;DHT22;53236;43.666;18.444;2023-04-05T01:30:42;-0.80;99.90
65462;DHT22;53236;43.666;18.444;2023-04-05T01:36:12;-0.80;99.90
65462;DHT22;53236;43.666;18.444;2023-04-05T01:38:42;-0.80;99.90
65462;DHT22;53236;43.666;18.444;2023-04-05T01:41:08;-0.70;99.90
65462;DHT22;53236;43.666;18.444;2023-04-05T01:43:34;-0.70;99.90
65462;DHT22;53236;43.666;18.444;2023-04-05T01:45:59;-0.70;99.90
65462;DHT22;53236;43.666;18.444;2023-04-05T01:48:25;-0.70;99.90
65462;DHT22;53236;43.666;18.444;2023-04-05T01:50:51;-0.70;99.90
65462;DHT22;53236;43.666;18.444;2023-04-05T01:53:16;-0.70;99.90
65462;DHT22;53236;43.666;18.444;2023-04-05T01:55:42;-0.70;99.90
65462;DHT22;53236;43.666;18.444;2023-04-05T01:58:08;-0.70;99.90
65462;DHT22;53236;43.666;18.444;2023-04-05T02:00:34;-0.70;99.90
65462;DHT22;53236;43.666;18.444;2023-04-05T02:02:59;-0.70;99.90
65462;DHT22;53236;43.666;18.444;2023-04-05T02:05:25;-0.70;99.90
65462;DHT22;53236;43.666;18.444;2023-04-05T02:07:51;-0.70;99.90
65462;DHT22;53236;43.666;18.444;2023-04-05T02:10:17;-0.70;99.90
65462;DHT22;53236;43.666;18.444;2023-04-05T02:12:43;-0.70;99.90
65462;DHT22;53236;43.666;18.444;2023-04-05T02:15:09;-0.70;99.90
65462;DHT22;53236;43.666;18.444;2023-04-05T02:17:36;-0.70;99.90
65462;DHT22;53236;43.666;18.444;2023-04-05T02:20:11;-0.80;99.90
65462;DHT22;53236;43.666;18.444;2023-04-05T02:22:39;-0.80;99.90
65462;DHT22;53236;43.666;18.444;2023-04-05T02:25:06;-0.80;99.90
65462;DHT22;53236;43.666;18.444;2023-04-05T02:27:33;-0.90;99.90
65462;DHT22;53236;43.666;18.444;2023-04-05T02:29:59;-0.80;99.90
65462;DHT22;53236;43.666;18.444;2023-04-05T02:32:25;-0.80;99.90
65462;DHT22;53236;43.666;18.444;2023-04-05T02:34:51;-0.80;99.90
65462;DHT22;53236;43.666;18.444;2023-04-05T02:37:18;-0.80;99.90
65462;DHT22;53236;43.666;18.444;2023-04-05T02:39:44;-0.80;99.90
65462;DHT22;53236;43.666;18.444;2023-04-05T02:42:09;-0.70;99.90
65462;DHT22;53236;43.666;18.444;2023-04-05T02:44:35;-0.70;99.90
65462;DHT22;53236;43.666;18.444;2023-04-05T02:47:01;-0.70;99.90
65462;DHT22;53236;43.666;18.444;2023-04-05T02:49:27;-0.70;99.90
65462;DHT22;53236;43.666;18.444;2023-04-05T02:51:52;-0.70;99.90
65462;DHT22;53236;43.666;18.444;2023-04-05T02:54:20;-0.70;99.90
65462;DHT22;53236;43.666;18.444;2023-04-05T02:56:46;-0.70;99.90
65462;DHT22;53236;43.666;18.444;2023-04-05T02:59:12;-0.70;99.90
65462;DHT22;53236;43.666;18.444;2023-04-05T03:01:39;-0.80;99.90
65462;DHT22;53236;43.666;18.444;2023-04-05T03:04:09;-0.80;99.90
65462;DHT22;53236;43.666;18.444;2023-04-05T03:06:37;-0.80;99.90
65462;DHT22;53236;43.666;18.444;2023-04-05T03:09:03;-0.80;99.90
65462;DHT22;53236;43.666;18.444;2023-04-05T03:11:29;-0.80;99.90
65462;DHT22;53236;43.666;18.444;2023-04-05T03:13:55;-0.80;99.90
65462;DHT22;53236;43.666;18.444;2023-04-05T03:16:21;-0.70;99.90
65462;DHT22;53236;43.666;18.444;2023-04-05T03:18:50;-0.80;99.90
65462;DHT22;53236;43.666;18.444;2023-04-05T03:21:16;-0.70;99.90
65462;DHT22;53236;43.666;18.444;2023-04-05T03:23:43;-0.80;99.90
65462;DHT22;53236;43.666;18.444;2023-04-05T03:26:11;-0.80;99.90
65462;DHT22;53236;43.666;18.444;2023-04-05T03:28:38;-0.80;99.90
65462;DHT22;53236;43.666;18.444;2023-04-05T03:31:10;-0.80;99.90
65462;DHT22;53236;43.666;18.444;2023-04-05T03:33:36;-0.80;99.90
65462;DHT22;53236;43.666;18.444;2023-04-05T03:36:02;-0.90;99.90
65462;DHT22;53236;43.666;18.444;2023-04-05T03:38:28;-0.90;99.90
65462;DHT22;53236;43.666;18.444;2023-04-05T03:40:57;-1.00;99.90
65462;DHT22;53236;43.666;18.444;2023-04-05T03:43:23;-0.90;99.90
65462;DHT22;53236;43.666;18.444;2023-04-05T03:45:49;-1.00;99.90
65462;DHT22;53236;43.666;18.444;2023-04-05T03:48:14;-0.90;99.90
65462;DHT22;53236;43.666;18.444;2023-04-05T03:50:45;-0.90;99.90
65462;DHT22;53236;43.666;18.444;2023-04-05T03:53:10;-0.90;99.90
65462;DHT22;53236;43.666;18.444;2023-04-05T03:55:36;-0.80;99.90
65462;DHT22;53236;43.666;18.444;2023-04-05T03:58:02;-0.90;99.90
65462;DHT22;53236;43.666;18.444;2023-04-05T04:00:27;-0.80;99.90
65462;DHT22;53236;43.666;18.444;2023-04-05T04:02:54;-0.90;99.90
65462;DHT22;53236;43.666;18.444;2023-04-05T04:05:19;-0.90;99.90
65462;DHT22;53236;43.666;18.444;2023-04-05T04:07:46;-1.00;99.90
65462;DHT22;53236;43.666;18.444;2023-04-05T04:10:14;-1.00;99.90
65462;DHT22;53236;43.666;18.444;2023-04-05T04:12:42;-1.00;99.90
65462;DHT22;53236;43.666;18.444;2023-04-05T04:15:08;-0.90;99.90
65462;DHT22;53236;43.666;18.444;2023-04-05T04:17:36;-1.00;99.90
65462;DHT22;53236;43.666;18.444;2023-04-05T04:20:03;-1.00;99.90
65462;DHT22;53236;43.666;18.444;2023-04-05T04:22:36;-1.00;99.90
65462;DHT22;53236;43.666;18.444;2023-04-05T04:25:12;-1.00;99.90
65462;DHT22;53236;43.666;18.444;2023-04-05T04:27:42;-1.00;99.90
65462;DHT22;53236;43.666;18.444;2023-04-05T04:30:10;-1.00;99.90
65462;DHT22;53236;43.666;18.444;2023-04-05T04:32:38;-1.00;99.90
65462;DHT22;53236;43.666;18.444;2023-04-05T04:35:18;-1.00;99.90
65462;DHT22;53236;43.666;18.444;2023-04-05T04:37:51;-0.90;99.90
65462;DHT22;53236;43.666;18.444;2023-04-05T04:40:32;-0.90;99.90
65462;DHT22;53236;43.666;18.444;2023-04-05T04:43:08;-0.90;99.90
65462;DHT22;53236;43.666;18.444;2023-04-05T04:45:39;-0.90;99.90
65462;DHT22;53236;43.666;18.444;2023-04-05T04:48:05;-0.90;99.90
65462;DHT22;53236;43.666;18.444;2023-04-05T04:50:31;-0.90;99.90
65462;DHT22;53236;43.666;18.444;2023-04-05T04:53:00;-0.90;99.90
65462;DHT22;53236;43.666;18.444;2023-04-05T04:55:27;-0.90;99.90
65462;DHT22;53236;43.666;18.444;2023-04-05T04:57:54;-0.80;99.90
65462;DHT22;53236;43.666;18.444;2023-04-05T05:00:21;-0.80;99.90
65462;DHT22;53236;43.666;18.444;2023-04-05T05:02:49;-0.70;99.90
65462;DHT22;53236;43.666;18.444;2023-04-05T05:05:15;-0.70;99.90
65462;DHT22;53236;43.666;18.444;2023-04-05T05:07:41;-0.70;99.90
65462;DHT22;53236;43.666;18.444;2023-04-05T05:10:10;-0.70;99.90
65462;DHT22;53236;43.666;18.444;2023-04-05T05:12:39;-0.70;99.90
65462;DHT22;53236;43.666;18.444;2023-04-05T05:15:05;-0.60;99.90
65462;DHT22;53236;43.666;18.444;2023-04-05T05:17:31;-0.50;99.90
65462;DHT22;53236;43.666;18.444;2023-04-05T05:19:56;-0.40;99.90
65462;DHT22;53236;43.666;18.444;2023-04-05T05:22:25;-0.30;99.90
65462;DHT22;53236;43.666;18.444;2023-04-05T05:24:51;-0.30;99.90
65462;DHT22;53236;43.666;18.444;2023-04-05T05:27:17;-0.20;99.90
65462;DHT22;53236;43.666;18.444;2023-04-05T05:29:43;-0.20;99.90
65462;DHT22;53236;43.666;18.444;2023-04-05T05:32:09;-0.20;99.90
65462;DHT22;53236;43.666;18.444;2023-04-05T05:34:39;-0.10;99.90
65462;DHT22;53236;43.666;18.444;2023-04-05T05:37:06;0.00;99.90
65462;DHT22;53236;43.666;18.444;2023-04-05T05:39:34;0.00;99.90
65462;DHT22;53236;43.666;18.444;2023-04-05T05:42:00;0.00;99.90
65462;DHT22;53236;43.666;18.444;2023-04-05T05:44:25;0.00;99.90
65462;DHT22;53236;43.666;18.444;2023-04-05T05:46:51;0.10;99.90
65462;DHT22;53236;43.666;18.444;2023-04-05T05:49:17;0.20;99.90
65462;DHT22;53236;43.666;18.444;2023-04-05T05:51:42;0.30;99.90
65462;DHT22;53236;43.666;18.444;2023-04-05T05:54:08;0.30;99.90
65462;DHT22;53236;43.666;18.444;2023-04-05T05:56:33;0.30;99.90
65462;DHT22;53236;43.666;18.444;2023-04-05T05:58:59;0.40;99.90
65462;DHT22;53236;43.666;18.444;2023-04-05T06:01:26;0.50;99.90
65462;DHT22;53236;43.666;18.444;2023-04-05T06:03:53;0.50;99.90
65462;DHT22;53236;43.666;18.444;2023-04-05T06:06:18;0.60;99.90
65462;DHT22;53236;43.666;18.444;2023-04-05T06:08:45;0.70;99.90
65462;DHT22;53236;43.666;18.444;2023-04-05T06:11:18;0.80;99.90
65462;DHT22;53236;43.666;18.444;2023-04-05T06:13:46;0.90;99.90
65462;DHT22;53236;43.666;18.444;2023-04-05T06:16:11;1.00;99.90
65462;DHT22;53236;43.666;18.444;2023-04-05T06:18:37;1.10;99.90
65462;DHT22;53236;43.666;18.444;2023-04-05T06:21:03;1.10;99.90
65462;DHT22;53236;43.666;18.444;2023-04-05T06:23:28;1.30;99.90
65462;DHT22;53236;43.666;18.444;2023-04-05T06:25:55;1.40;99.90
65462;DHT22;53236;43.666;18.444;2023-04-05T06:28:21;1.40;99.90
65462;DHT22;53236;43.666;18.444;2023-04-05T06:30:47;1.50;99.90
65462;DHT22;53236;43.666;18.444;2023-04-05T06:33:12;1.60;99.90
65462;DHT22;53236;43.666;18.444;2023-04-05T06:35:38;1.60;99.90
65462;DHT22;53236;43.666;18.444;2023-04-05T06:38:04;1.60;99.90
65462;DHT22;53236;43.666;18.444;2023-04-05T06:40:30;1.80;99.90
65462;DHT22;53236;43.666;18.444;2023-04-05T06:42:55;1.90;99.90
65462;DHT22;53236;43.666;18.444;2023-04-05T06:45:21;1.90;99.90
65462;DHT22;53236;43.666;18.444;2023-04-05T06:47:48;2.10;99.90
65462;DHT22;53236;43.666;18.444;2023-04-05T06:50:13;2.30;99.90
65462;DHT22;53236;43.666;18.444;2023-04-05T06:52:39;2.70;99.90
65462;DHT22;53236;43.666;18.444;2023-04-05T06:55:05;3.00;99.90
65462;DHT22;53236;43.666;18.444;2023-04-05T06:57:32;3.20;99.90
65462;DHT22;53236;43.666;18.444;2023-04-05T06:59:58;3.50;99.40
65462;DHT22;53236;43.666;18.444;2023-04-05T07:02:24;3.70;97.80
65462;DHT22;53236;43.666;18.444;2023-04-05T07:04:50;3.70;95.40
65462;DHT22;53236;43.666;18.444;2023-04-05T07:07:16;3.60;91.80
65462;DHT22;53236;43.666;18.444;2023-04-05T07:09:42;3.60;90.40
65462;DHT22;53236;43.666;18.444;2023-04-05T07:12:08;3.50;90.40
65462;DHT22;53236;43.666;18.444;2023-04-05T07:14:35;3.50;83.60
65462;DHT22;53236;43.666;18.444;2023-04-05T07:17:05;3.20;89.50
65462;DHT22;53236;43.666;18.444;2023-04-05T07:19:31;3.60;91.00
65462;DHT22;53236;43.666;18.444;2023-04-05T07:21:58;4.00;90.90
65462;DHT22;53236;43.666;18.444;2023-04-05T07:24:24;4.30;85.80
65462;DHT22;53236;43.666;18.444;2023-04-05T07:26:50;4.70;87.40
65462;DHT22;53236;43.666;18.444;2023-04-05T07:29:16;4.60;80.10
65462;DHT22;53236;43.666;18.444;2023-04-05T07:31:42;4.40;79.30
65462;DHT22;53236;43.666;18.444;2023-04-05T07:34:08;4.60;78.50
65462;DHT22;53236;43.666;18.444;2023-04-05T07:36:33;4.80;75.10
65462;DHT22;53236;43.666;18.444;2023-04-05T07:39:00;4.50;71.80
65462;DHT22;53236;43.666;18.444;2023-04-05T07:41:27;4.70;72.70
65462;DHT22;53236;43.666;18.444;2023-04-05T07:43:56;5.10;74.30
65462;DHT22;53236;43.666;18.444;2023-04-05T07:46:22;5.10;71.80
65462;DHT22;53236;43.666;18.444;2023-04-05T07:48:48;5.20;67.30
65462;DHT22;53236;43.666;18.444;2023-04-05T07:51:14;5.30;66.40
65462;DHT22;53236;43.666;18.444;2023-04-05T07:53:40;5.10;65.50
65462;DHT22;53236;43.666;18.444;2023-04-05T07:56:08;5.60;66.90
65462;DHT22;53236;43.666;18.444;2023-04-05T07:58:35;6.10;68.60
65462;DHT22;53236;43.666;18.444;2023-04-05T08:01:04;6.30;64.30
65462;DHT22;53236;43.666;18.444;2023-04-05T08:03:30;5.80;64.90
65462;DHT22;53236;43.666;18.444;2023-04-05T08:05:56;5.60;64.30
65462;DHT22;53236;43.666;18.444;2023-04-05T08:08:25;5.60;66.50
65462;DHT22;53236;43.666;18.444;2023-04-05T08:10:51;5.60;66.70
65462;DHT22;53236;43.666;18.444;2023-04-05T08:13:16;5.30;69.40
65462;DHT22;53236;43.666;18.444;2023-04-05T08:15:42;5.10;68.10
65462;DHT22;53236;43.666;18.444;2023-04-05T08:18:08;5.00;69.30
65462;DHT22;53236;43.666;18.444;2023-04-05T08:20:36;5.00;71.30
65462;DHT22;53236;43.666;18.444;2023-04-05T08:23:04;4.60;73.40
65462;DHT22;53236;43.666;18.444;2023-04-05T08:25:30;4.70;75.80
65462;DHT22;53236;43.666;18.444;2023-04-05T08:27:55;4.90;74.30
65462;DHT22;53236;43.666;18.444;2023-04-05T08:30:21;5.10;72.10
65462;DHT22;53236;43.666;18.444;2023-04-05T08:32:48;5.30;73.10
65462;DHT22;53236;43.666;18.444;2023-04-05T08:35:14;5.40;69.10
65462;DHT22;53236;43.666;18.444;2023-04-05T08:37:39;5.20;70.70
65462;DHT22;53236;43.666;18.444;2023-04-05T08:40:06;4.60;70.00
65462;DHT22;53236;43.666;18.444;2023-04-05T08:42:40;4.30;74.60
65462;DHT22;53236;43.666;18.444;2023-04-05T08:45:09;4.30;78.20
65462;DHT22;53236;43.666;18.444;2023-04-05T08:47:36;4.30;78.20
65462;DHT22;53236;43.666;18.444;2023-04-05T08:50:04;4.10;76.90
65462;DHT22;53236;43.666;18.444;2023-04-05T08:52:33;4.30;80.50
65462;DHT22;53236;43.666;18.444;2023-04-05T08:55:03;4.40;79.10
65462;DHT22;53236;43.666;18.444;2023-04-05T08:57:30;4.10;79.30
65462;DHT22;53236;43.666;18.444;2023-04-05T08:59:57;4.30;77.40
65462;DHT22;53236;43.666;18.444;2023-04-05T09:02:24;4.00;79.80
65462;DHT22;53236;43.666;18.444;2023-04-05T09:04:50;4.40;79.70
65462;DHT22;53236;43.666;18.444;2023-04-05T09:07:19;4.70;77.10
65462;DHT22;53236;43.666;18.444;2023-04-05T09:09:52;4.90;73.70
65462;DHT22;53236;43.666;18.444;2023-04-05T09:12:20;4.90;74.70
65462;DHT22;53236;43.666;18.444;2023-04-05T09:14:49;4.90;73.90
65462;DHT22;53236;43.666;18.444;2023-04-05T09:17:16;4.90;71.90
65462;DHT22;53236;43.666;18.444;2023-04-05T09:19:44;4.90;72.60
65462;DHT22;53236;43.666;18.444;2023-04-05T09:22:10;4.90;73.70
65462;DHT22;53236;43.666;18.444;2023-04-05T09:24:43;4.80;73.40
65462;DHT22;53236;43.666;18.444;2023-04-05T09:27:14;4.80;73.80
65462;DHT22;53236;43.666;18.444;2023-04-05T09:29:42;4.80;71.70
65462;DHT22;53236;43.666;18.444;2023-04-05T09:32:10;4.80;71.80
65462;DHT22;53236;43.666;18.444;2023-04-05T09:34:36;4.30;72.60
65462;DHT22;53236;43.666;18.444;2023-04-05T09:39:38;4.20;72.90
65462;DHT22;53236;43.666;18.444;2023-04-05T09:42:12;3.90;76.80
65462;DHT22;53236;43.666;18.444;2023-04-05T09:47:19;4.20;78.30
65462;DHT22;53236;43.666;18.444;2023-04-05T09:49:44;4.10;76.30
65462;DHT22;53236;43.666;18.444;2023-04-05T09:52:21;4.30;79.80
65462;DHT22;53236;43.666;18.444;2023-04-05T09:54:48;4.20;73.00
65462;DHT22;53236;43.666;18.444;2023-04-05T09:57:17;4.10;76.20
65462;DHT22;53236;43.666;18.444;2023-04-05T09:59:44;4.00;76.80
65462;DHT22;53236;43.666;18.444;2023-04-05T10:02:10;4.20;76.00
65462;DHT22;53236;43.666;18.444;2023-04-05T10:04:44;4.30;79.90
65462;DHT22;53236;43.666;18.444;2023-04-05T10:07:11;4.10;78.10
65462;DHT22;53236;43.666;18.444;2023-04-05T10:09:39;4.10;81.50
65462;DHT22;53236;43.666;18.444;2023-04-05T10:12:06;4.00;80.60
65462;DHT22;53236;43.666;18.444;2023-04-05T10:14:34;4.10;81.30
65462;DHT22;53236;43.666;18.444;2023-04-05T10:17:20;3.70;80.00
65462;DHT22;53236;43.666;18.444;2023-04-05T10:22:20;3.60;83.70
65462;DHT22;53236;43.666;18.444;2023-04-05T10:25:04;3.60;82.80
65462;DHT22;53236;43.666;18.444;2023-04-05T10:27:34;3.50;82.20
65462;DHT22;53236;43.666;18.444;2023-04-05T10:35:20;3.60;83.50
65462;DHT22;53236;43.666;18.444;2023-04-05T10:40:35;3.60;81.70
65462;DHT22;53236;43.666;18.444;2023-04-05T10:43:05;3.60;85.00
65462;DHT22;53236;43.666;18.444;2023-04-05T10:45:33;3.70;86.40
65462;DHT22;53236;43.666;18.444;2023-04-05T10:50:55;3.90;83.80
65462;DHT22;53236;43.666;18.444;2023-04-05T10:53:22;3.90;80.90
65462;DHT22;53236;43.666;18.444;2023-04-05T10:55:50;3.60;83.60
65462;DHT22;53236;43.666;18.444;2023-04-05T10:58:16;3.60;84.90
65462;DHT22;53236;43.666;18.444;2023-04-05T11:00:43;3.60;86.40
65462;DHT22;53236;43.666;18.444;2023-04-05T11:03:10;3.70;82.10
65462;DHT22;53236;43.666;18.444;2023-04-05T11:05:36;3.60;78.00
65462;DHT22;53236;43.666;18.444;2023-04-05T11:08:04;3.60;77.90
65462;DHT22;53236;43.666;18.444;2023-04-05T11:10:34;3.70;80.40
65462;DHT22;53236;43.666;18.444;2023-04-05T11:15:27;4.10;79.50
65462;DHT22;53236;43.666;18.444;2023-04-05T11:20:39;4.00;79.10
65462;DHT22;53236;43.666;18.444;2023-04-05T11:23:06;4.10;79.00
65462;DHT22;53236;43.666;18.444;2023-04-05T11:25:36;4.20;77.90
65462;DHT22;53236;43.666;18.444;2023-04-05T11:28:04;4.50;77.10
65462;DHT22;53236;43.666;18.444;2023-04-05T11:30:47;4.70;74.40
65462;DHT22;53236;43.666;18.444;2023-04-05T11:36:00;4.80;69.40
65462;DHT22;53236;43.666;18.444;2023-04-05T11:38:29;5.00;70.10
65462;DHT22;53236;43.666;18.444;2023-04-05T11:41:14;5.30;68.10
65462;DHT22;53236;43.666;18.444;2023-04-05T11:43:44;5.40;64.30
65462;DHT22;53236;43.666;18.444;2023-04-05T11:46:12;5.20;66.30
65462;DHT22;53236;43.666;18.444;2023-04-05T11:48:40;5.10;66.40
65462;DHT22;53236;43.666;18.444;2023-04-05T11:51:08;4.80;64.70
65462;DHT22;53236;43.666;18.444;2023-04-05T11:53:37;4.90;66.80
65462;DHT22;53236;43.666;18.444;2023-04-05T11:56:09;5.00;68.80
65462;DHT22;53236;43.666;18.444;2023-04-05T11:58:37;5.00;67.10
65462;DHT22;53236;43.666;18.444;2023-04-05T12:01:04;5.20;67.30
65462;DHT22;53236;43.666;18.444;2023-04-05T12:03:34;5.30;65.10
65462;DHT22;53236;43.666;18.444;2023-04-05T12:06:02;5.40;63.80
65462;DHT22;53236;43.666;18.444;2023-04-05T12:11:09;4.80;68.90
65462;DHT22;53236;43.666;18.444;2023-04-05T12:13:36;4.80;71.10
65462;DHT22;53236;43.666;18.444;2023-04-05T12:16:06;4.60;72.70
65462;DHT22;53236;43.666;18.444;2023-04-05T12:18:33;4.60;73.60
65462;DHT22;53236;43.666;18.444;2023-04-05T12:21:08;4.90;73.70
65462;DHT22;53236;43.666;18.444;2023-04-05T12:23:35;4.90;72.70
65462;DHT22;53236;43.666;18.444;2023-04-05T12:26:05;4.90;71.60
65462;DHT22;53236;43.666;18.444;2023-04-05T12:28:54;5.10;74.10
65462;DHT22;53236;43.666;18.444;2023-04-05T12:31:39;5.00;72.30
65462;DHT22;53236;43.666;18.444;2023-04-05T12:34:05;5.10;72.60
65462;DHT22;53236;43.666;18.444;2023-04-05T12:36:31;5.00;69.90
65462;DHT22;53236;43.666;18.444;2023-04-05T12:38:57;5.10;69.70
65462;DHT22;53236;43.666;18.444;2023-04-05T12:41:29;4.90;70.40
65462;DHT22;53236;43.666;18.444;2023-04-05T12:43:56;4.90;71.50
65462;DHT22;53236;43.666;18.444;2023-04-05T12:46:45;4.80;72.40
65462;DHT22;53236;43.666;18.444;2023-04-05T12:49:14;4.50;72.10
65462;DHT22;53236;43.666;18.444;2023-04-05T12:51:42;4.20;72.20
65462;DHT22;53236;43.666;18.444;2023-04-05T12:54:18;4.10;75.20
65462;DHT22;53236;43.666;18.444;2023-04-05T12:56:48;4.20;74.60
65462;DHT22;53236;43.666;18.444;2023-04-05T12:59:14;3.90;76.10
65462;DHT22;53236;43.666;18.444;2023-04-05T13:01:39;3.80;78.70
65462;DHT22;53236;43.666;18.444;2023-04-05T13:04:05;3.80;78.50
65462;DHT22;53236;43.666;18.444;2023-04-05T13:06:31;3.70;78.80
65462;DHT22;53236;43.666;18.444;2023-04-05T13:08:57;3.60;78.70
65462;DHT22;53236;43.666;18.444;2023-04-05T13:11:22;3.70;78.70
65462;DHT22;53236;43.666;18.444;2023-04-05T13:13:48;3.70;80.70
65462;DHT22;53236;43.666;18.444;2023-04-05T13:16:14;3.70;80.40
65462;DHT22;53236;43.666;18.444;2023-04-05T13:18:40;3.70;81.00
65462;DHT22;53236;43.666;18.444;2023-04-05T13:21:06;3.80;79.20
65462;DHT22;53236;43.666;18.444;2023-04-05T13:23:34;3.90;78.00
65462;DHT22;53236;43.666;18.444;2023-04-05T13:26:00;3.90;77.70
65462;DHT22;53236;43.666;18.444;2023-04-05T13:28:26;3.80;78.90
65462;DHT22;53236;43.666;18.444;2023-04-05T13:30:52;3.80;77.80
65462;DHT22;53236;43.666;18.444;2023-04-05T13:33:18;3.80;76.80
65462;DHT22;53236;43.666;18.444;2023-04-05T13:35:44;3.60;81.80
65462;DHT22;53236;43.666;18.444;2023-04-05T13:38:10;3.60;82.40
65462;DHT22;53236;43.666;18.444;2023-04-05T13:40:36;3.40;83.10
65462;DHT22;53236;43.666;18.444;2023-04-05T13:43:02;3.30;82.20
65462;DHT22;53236;43.666;18.444;2023-04-05T13:45:28;3.10;85.70
65462;DHT22;53236;43.666;18.444;2023-04-05T13:47:54;3.00;86.70
65462;DHT22;53236;43.666;18.444;2023-04-05T13:50:19;2.90;90.30
65462;DHT22;53236;43.666;18.444;2023-04-05T13:52:45;3.00;90.50
65462;DHT22;53236;43.666;18.444;2023-04-05T13:55:11;3.00;90.50
65462;DHT22;53236;43.666;18.444;2023-04-05T13:57:36;2.90;89.00
65462;DHT22;53236;43.666;18.444;2023-04-05T14:00:03;2.90;91.10
65462;DHT22;53236;43.666;18.444;2023-04-05T14:02:28;3.00;90.00
65462;DHT22;53236;43.666;18.444;2023-04-05T14:04:54;3.00;90.80
65462;DHT22;53236;43.666;18.444;2023-04-05T14:07:21;2.90;90.60
65462;DHT22;53236;43.666;18.444;2023-04-05T14:09:47;2.80;88.80
65462;DHT22;53236;43.666;18.444;2023-04-05T14:12:12;2.80;91.90
65462;DHT22;53236;43.666;18.444;2023-04-05T14:14:38;2.70;91.70
65462;DHT22;53236;43.666;18.444;2023-04-05T14:17:04;2.70;92.30
65462;DHT22;53236;43.666;18.444;2023-04-05T14:19:31;2.80;90.40
65462;DHT22;53236;43.666;18.444;2023-04-05T14:21:57;2.60;93.10
65462;DHT22;53236;43.666;18.444;2023-04-05T14:24:23;2.60;94.10
65462;DHT22;53236;43.666;18.444;2023-04-05T14:26:48;2.70;95.20
65462;DHT22;53236;43.666;18.444;2023-04-05T14:29:17;2.70;92.30
65462;DHT22;53236;43.666;18.444;2023-04-05T14:31:44;2.70;90.70
65462;DHT22;53236;43.666;18.444;2023-04-05T14:34:10;2.70;90.90
65462;DHT22;53236;43.666;18.444;2023-04-05T14:36:36;2.80;92.40
65462;DHT22;53236;43.666;18.444;2023-04-05T14:39:02;2.60;92.50
65462;DHT22;53236;43.666;18.444;2023-04-05T14:41:28;2.60;93.50
65462;DHT22;53236;43.666;18.444;2023-04-05T14:43:54;2.70;94.10
65462;DHT22;53236;43.666;18.444;2023-04-05T14:46:20;2.60;92.80
65462;DHT22;53236;43.666;18.444;2023-04-05T14:48:46;2.60;94.50
65462;DHT22;53236;43.666;18.444;2023-04-05T14:51:12;2.60;93.10
65462;DHT22;53236;43.666;18.444;2023-04-05T14:53:38;2.50;95.60
65462;DHT22;53236;43.666;18.444;2023-04-05T14:56:05;2.50;94.40
65462;DHT22;53236;43.666;18.444;2023-04-05T14:58:30;2.30;93.20
65462;DHT22;53236;43.666;18.444;2023-04-05T15:00:58;2.30;95.40
65462;DHT22;53236;43.666;18.444;2023-04-05T15:03:24;2.40;94.80
65462;DHT22;53236;43.666;18.444;2023-04-05T15:05:50;2.40;94.10
65462;DHT22;53236;43.666;18.444;2023-04-05T15:08:16;2.30;94.60
65462;DHT22;53236;43.666;18.444;2023-04-05T15:10:41;2.20;96.00
65462;DHT22;53236;43.666;18.444;2023-04-05T15:13:08;2.20;96.80
65462;DHT22;53236;43.666;18.444;2023-04-05T15:15:35;2.20;96.10
65462;DHT22;53236;43.666;18.444;2023-04-05T15:18:02;2.20;97.00
65462;DHT22;53236;43.666;18.444;2023-04-05T15:20:27;2.00;97.50
65462;DHT22;53236;43.666;18.444;2023-04-05T15:22:53;2.00;98.80
65462;DHT22;53236;43.666;18.444;2023-04-05T15:25:19;1.90;96.40
65462;DHT22;53236;43.666;18.444;2023-04-05T15:27:45;1.90;99.10
65462;DHT22;53236;43.666;18.444;2023-04-05T15:30:11;1.90;99.00
65462;DHT22;53236;43.666;18.444;2023-04-05T15:32:37;1.90;98.80
65462;DHT22;53236;43.666;18.444;2023-04-05T15:35:03;1.80;99.90
65462;DHT22;53236;43.666;18.444;2023-04-05T15:37:29;1.90;99.60
65462;DHT22;53236;43.666;18.444;2023-04-05T15:39:54;1.90;99.90
65462;DHT22;53236;43.666;18.444;2023-04-05T15:42:20;1.90;99.90
65462;DHT22;53236;43.666;18.444;2023-04-05T15:44:49;1.90;99.90
65462;DHT22;53236;43.666;18.444;2023-04-05T15:47:16;1.80;99.90
65462;DHT22;53236;43.666;18.444;2023-04-05T15:49:42;1.80;99.90
65462;DHT22;53236;43.666;18.444;2023-04-05T15:52:08;1.80;99.90
65462;DHT22;53236;43.666;18.444;2023-04-05T15:54:34;1.80;98.80
65462;DHT22;53236;43.666;18.444;2023-04-05T15:57:00;1.80;99.90
65462;DHT22;53236;43.666;18.444;2023-04-05T15:59:27;1.80;99.90
65462;DHT22;53236;43.666;18.444;2023-04-05T16:01:52;1.80;99.90
65462;DHT22;53236;43.666;18.444;2023-04-05T16:04:19;1.80;99.90
65462;DHT22;53236;43.666;18.444;2023-04-05T16:06:45;1.80;99.90